Time,TemperatureF,DewpointF,PressureIn,WindDirection,WindDirectionDegrees,WindSpeedMPH,WindSpeedGustMPH,Humidity,HourlyPrecipIn,Conditions,Clouds,dailyrainin,SolarRadiationWatts/m^2,SoftwareType,DateUTC
2013-02-16 00:21:00,14.0,12.0,-100.00,SE,143,2.0,8.0,91,0.00,,,0.00,0.000000,,2013-02-16 09:21:00,
2013-02-16 00:31:00,14.0,12.0,-100.00,SE,143,2.0,8.0,91,0.00,,,0.00,0.000000,,2013-02-16 09:31:00,
2013-02-16 00:42:00,14.0,12.0,-100.00,SE,143,2.0,8.0,91,0.00,,,0.00,0.000000,,2013-02-16 09:42:00,
2013-02-16 00:51:00,14.0,12.0,-100.00,SE,143,2.0,8.0,91,0.00,,,0.00,0.000000,,2013-02-16 09:51:00,
2013-02-16 01:21:00,15.0,12.0,-100.00,SE,132,2.0,9.0,87,0.00,,,0.00,0.000000,,2013-02-16 10:21:00,
2013-02-16 01:31:00,15.0,12.0,-100.00,SE,132,2.0,9.0,87,0.00,,,0.00,0.000000,,2013-02-16 10:31:00,
2013-02-16 01:41:00,15.0,12.0,-100.00,SE,132,2.0,9.0,87,0.00,,,0.00,0.000000,,2013-02-16 10:41:00,
2013-02-16 01:51:00,15.0,12.0,-100.00,SE,132,2.0,9.0,87,0.00,,,0.00,0.000000,,2013-02-16 10:51:00,
2013-02-16 01:52:00,13.0,10.0,-100.00,ESE,122,2.0,7.0,87,0.00,,,0.00,0.000000,,2013-02-16 10:52:00,
2013-02-16 02:22:00,13.0,10.0,-100.00,ESE,122,2.0,7.0,87,0.00,,,0.00,0.000000,,2013-02-16 11:22:00,
2013-02-16 02:31:00,13.0,10.0,-100.00,ESE,122,2.0,7.0,87,0.00,,,0.00,0.000000,,2013-02-16 11:31:00,
2013-02-16 02:42:00,13.0,10.0,-100.00,ESE,122,2.0,7.0,87,0.00,,,0.00,0.000000,,2013-02-16 11:42:00,
2013-02-16 02:52:00,13.0,11.0,-100.00,ESE,116,2.0,8.0,91,0.00,,,0.00,0.000000,,2013-02-16 11:52:00,
2013-02-16 03:12:00,13.0,11.0,-100.00,ESE,116,2.0,8.0,91,0.00,,,0.00,0.000000,,2013-02-16 12:12:00,
2013-02-16 03:22:00,13.0,11.0,-100.00,ESE,116,2.0,8.0,91,0.00,,,0.00,0.000000,,2013-02-16 12:22:00,
2013-02-16 03:32:00,13.0,11.0,-100.00,ESE,116,2.0,8.0,91,0.00,,,0.00,0.000000,,2013-02-16 12:32:00,
2013-02-16 03:42:00,13.0,11.0,-100.00,ESE,116,2.0,8.0,91,0.00,,,0.00,0.000000,,2013-02-16 12:42:00,
2013-02-16 04:11:00,13.0,11.0,-100.00,ESE,109,2.0,9.0,91,0.00,,,0.00,0.000000,,2013-02-16 13:11:00,
2013-02-16 04:21:00,13.0,11.0,-100.00,ESE,109,2.0,9.0,91,0.00,,,0.00,0.000000,,2013-02-16 13:21:00,
2013-02-16 04:31:00,13.0,11.0,-100.00,ESE,109,2.0,9.0,91,0.00,,,0.00,0.000000,,2013-02-16 13:31:00,
2013-02-16 04:41:00,13.0,11.0,-100.00,ESE,109,2.0,9.0,91,0.00,,,0.00,0.000000,,2013-02-16 13:41:00,
2013-02-16 04:51:00,13.0,11.0,-100.00,ESE,109,2.0,9.0,91,0.00,,,0.00,0.000000,,2013-02-16 13:51:00,
2013-02-16 05:11:00,14.0,11.0,-100.00,SE,128,2.0,9.0,89,0.00,,,0.00,0.000000,,2013-02-16 14:11:00,
2013-02-16 05:21:00,14.0,11.0,-100.00,SE,128,2.0,9.0,89,0.00,,,0.00,0.000000,,2013-02-16 14:21:00,
2013-02-16 05:32:00,14.0,11.0,-100.00,SE,128,2.0,9.0,89,0.00,,,0.00,0.000000,,2013-02-16 14:32:00,
2013-02-16 05:41:00,14.0,11.0,-100.00,SE,128,2.0,9.0,89,0.00,,,0.00,0.000000,,2013-02-16 14:41:00,
2013-02-16 05:51:00,14.0,11.0,-100.00,SE,128,2.0,9.0,89,0.00,,,0.00,0.000000,,2013-02-16 14:51:00,
2013-02-16 06:21:00,14.0,11.0,-100.00,ESE,121,2.0,8.0,88,0.00,,,0.00,0.000000,,2013-02-16 15:21:00,
2013-02-16 06:31:00,14.0,11.0,-100.00,ESE,121,2.0,8.0,88,0.00,,,0.00,0.000000,,2013-02-16 15:31:00,
2013-02-16 06:41:00,14.0,11.0,-100.00,ESE,121,2.0,8.0,88,0.00,,,0.00,0.000000,,2013-02-16 15:41:00,
2013-02-16 06:51:00,14.0,11.0,-100.00,ESE,121,2.0,8.0,88,0.00,,,0.00,0.000000,,2013-02-16 15:51:00,
2013-02-16 07:11:00,15.0,13.0,-100.00,SE,142,2.0,8.0,90,0.00,,,0.00,0.000000,,2013-02-16 16:11:00,
2013-02-16 07:21:00,15.0,13.0,-100.00,SE,142,2.0,8.0,90,0.00,,,0.00,0.000000,,2013-02-16 16:21:00,
2013-02-16 07:32:00,15.0,13.0,-100.00,SE,142,2.0,8.0,90,0.00,,,0.00,0.000000,,2013-02-16 16:32:00,
2013-02-16 07:41:00,15.0,13.0,-100.00,SE,142,2.0,8.0,90,0.00,,,0.00,0.000000,,2013-02-16 16:41:00,
2013-02-16 07:51:00,15.0,13.0,-100.00,SE,142,2.0,8.0,90,0.00,,,0.00,0.000000,,2013-02-16 16:51:00,
2013-02-16 07:52:00,15.0,12.0,-100.00,ESE,119,3.0,9.0,89,0.00,,,0.00,0.000000,,2013-02-16 16:52:00,
2013-02-16 08:21:00,15.0,12.0,-100.00,ESE,119,3.0,9.0,89,0.00,,,0.00,0.000000,,2013-02-16 17:21:00,
2013-02-16 08:32:00,15.0,12.0,-100.00,ESE,119,3.0,9.0,89,0.00,,,0.00,0.000000,,2013-02-16 17:32:00,
2013-02-16 08:41:00,15.0,12.0,-100.00,ESE,119,3.0,9.0,89,0.00,,,0.00,0.000000,,2013-02-16 17:41:00,
2013-02-16 09:11:00,15.0,12.0,-100.00,ESE,114,2.0,6.0,86,0.00,,,0.00,0.000000,,2013-02-16 18:11:00,
2013-02-16 09:21:00,15.0,12.0,-100.00,ESE,114,2.0,6.0,86,0.00,,,0.00,0.000000,,2013-02-16 18:21:00,
2013-02-16 09:33:00,15.0,12.0,-100.00,ESE,114,2.0,6.0,86,0.00,,,0.00,0.000000,,2013-02-16 18:33:00,
2013-02-16 09:41:00,15.0,12.0,-100.00,ESE,114,2.0,6.0,86,0.00,,,0.00,0.000000,,2013-02-16 18:41:00,
2013-02-16 09:51:00,15.0,12.0,-100.00,ESE,114,2.0,6.0,86,0.00,,,0.00,0.000000,,2013-02-16 18:51:00,
2013-02-16 09:52:00,17.0,12.0,-100.00,ESE,116,2.0,7.0,81,0.00,,,0.00,4.000000,,2013-02-16 18:52:00,
2013-02-16 10:11:00,17.0,12.0,-100.00,ESE,116,2.0,7.0,81,0.00,,,0.00,4.000000,,2013-02-16 19:11:00,
2013-02-16 10:21:00,17.0,12.0,-100.00,ESE,116,2.0,7.0,81,0.00,,,0.00,4.000000,,2013-02-16 19:21:00,
2013-02-16 10:31:00,17.0,12.0,-100.00,ESE,116,2.0,7.0,81,0.00,,,0.00,4.000000,,2013-02-16 19:31:00,
2013-02-16 10:42:00,17.0,12.0,-100.00,ESE,116,2.0,7.0,81,0.00,,,0.00,4.000000,,2013-02-16 19:42:00,
2013-02-16 10:52:00,20.0,14.0,-100.00,ESE,118,2.0,8.0,77,0.00,,,0.00,8.000000,,2013-02-16 19:52:00,
2013-02-16 11:11:00,20.0,14.0,-100.00,ESE,118,2.0,8.0,77,0.00,,,0.00,8.000000,,2013-02-16 20:11:00,
2013-02-16 11:21:00,20.0,14.0,-100.00,ESE,118,2.0,8.0,77,0.00,,,0.00,8.000000,,2013-02-16 20:21:00,
2013-02-16 11:32:00,20.0,14.0,-100.00,ESE,118,2.0,8.0,77,0.00,,,0.00,8.000000,,2013-02-16 20:32:00,
2013-02-16 11:42:00,20.0,14.0,-100.00,ESE,118,2.0,8.0,77,0.00,,,0.00,8.000000,,2013-02-16 20:42:00,
2013-02-16 12:11:00,23.0,14.0,-100.00,SE,129,2.0,6.0,68,0.00,,,0.00,13.000000,,2013-02-16 21:11:00,
2013-02-16 12:21:00,23.0,14.0,-100.00,SE,129,2.0,6.0,68,0.00,,,0.00,13.000000,,2013-02-16 21:21:00,
2013-02-16 12:31:00,23.0,14.0,-100.00,SE,129,2.0,6.0,68,0.00,,,0.00,13.000000,,2013-02-16 21:31:00,
2013-02-16 12:41:00,23.0,14.0,-100.00,SE,129,2.0,6.0,68,0.00,,,0.00,13.000000,,2013-02-16 21:41:00,
2013-02-16 12:51:00,23.0,14.0,-100.00,SE,129,2.0,6.0,68,0.00,,,0.00,13.000000,,2013-02-16 21:51:00,
2013-02-16 13:11:00,27.0,18.0,-100.00,SSW,193,1.0,6.0,69,0.00,,,0.00,23.000000,,2013-02-16 22:11:00,
2013-02-16 13:21:00,27.0,18.0,-100.00,SSW,193,1.0,6.0,69,0.00,,,0.00,23.000000,,2013-02-16 22:21:00,
2013-02-16 13:32:00,27.0,18.0,-100.00,SSW,193,1.0,6.0,69,0.00,,,0.00,23.000000,,2013-02-16 22:32:00,
2013-02-16 13:42:00,27.0,18.0,-100.00,SSW,193,1.0,6.0,69,0.00,,,0.00,23.000000,,2013-02-16 22:42:00,
2013-02-16 13:51:00,27.0,18.0,-100.00,SSW,193,1.0,6.0,69,0.00,,,0.00,23.000000,,2013-02-16 22:51:00,
2013-02-16 13:52:00,28.0,17.0,-100.00,NW,322,0.0,4.0,64,0.00,,,0.00,29.000000,,2013-02-16 22:52:00,
2013-02-16 14:21:00,28.0,17.0,-100.00,NW,322,0.0,4.0,64,0.00,,,0.00,29.000000,,2013-02-16 23:21:00,
2013-02-16 14:31:00,28.0,17.0,-100.00,NW,322,0.0,4.0,64,0.00,,,0.00,29.000000,,2013-02-16 23:31:00,
2013-02-16 14:42:00,28.0,17.0,-100.00,NW,322,0.0,4.0,64,0.00,,,0.00,29.000000,,2013-02-16 23:42:00,
2013-02-16 15:21:00,28.0,16.0,-100.00,NNW,340,0.0,2.0,61,0.00,,,0.00,26.000000,,2013-02-17 00:21:00,
2013-02-16 15:31:00,28.0,16.0,-100.00,NNW,340,0.0,2.0,61,0.00,,,0.00,26.000000,,2013-02-17 00:31:00,
2013-02-16 15:41:00,28.0,16.0,-100.00,NNW,340,0.0,2.0,61,0.00,,,0.00,26.000000,,2013-02-17 00:41:00,
2013-02-16 15:51:00,28.0,16.0,-100.00,NNW,340,0.0,2.0,61,0.00,,,0.00,26.000000,,2013-02-17 00:51:00,
2013-02-16 15:52:00,27.0,18.0,-100.00,NNW,340,1.0,4.0,67,0.00,,,0.00,18.000000,,2013-02-17 00:52:00,
2013-02-16 16:21:00,27.0,18.0,-100.00,NNW,340,1.0,4.0,67,0.00,,,0.00,18.000000,,2013-02-17 01:21:00,
2013-02-16 16:31:00,27.0,18.0,-100.00,NNW,340,1.0,4.0,67,0.00,,,0.00,18.000000,,2013-02-17 01:31:00,
2013-02-16 16:41:00,27.0,18.0,-100.00,NNW,340,1.0,4.0,67,0.00,,,0.00,18.000000,,2013-02-17 01:41:00,
2013-02-16 16:52:00,26.0,16.0,-100.00,North,5,3.0,6.0,66,0.00,,,0.00,12.000000,,2013-02-17 01:52:00,
2013-02-16 17:21:00,26.0,16.0,-100.00,North,5,3.0,6.0,66,0.00,,,0.00,12.000000,,2013-02-17 02:21:00,
2013-02-16 17:31:00,26.0,16.0,-100.00,North,5,3.0,6.0,66,0.00,,,0.00,12.000000,,2013-02-17 02:31:00,
2013-02-16 17:41:00,26.0,16.0,-100.00,North,5,3.0,6.0,66,0.00,,,0.00,12.000000,,2013-02-17 02:41:00,
2013-02-16 18:11:00,25.0,15.0,-100.00,North,11,2.0,8.0,65,0.00,,,0.00,3.000000,,2013-02-17 03:11:00,
2013-02-16 18:21:00,25.0,15.0,-100.00,North,11,2.0,8.0,65,0.00,,,0.00,3.000000,,2013-02-17 03:21:00,
2013-02-16 18:31:00,25.0,15.0,-100.00,North,11,2.0,8.0,65,0.00,,,0.00,3.000000,,2013-02-17 03:31:00,
2013-02-16 18:42:00,25.0,15.0,-100.00,North,11,2.0,8.0,65,0.00,,,0.00,3.000000,,2013-02-17 03:42:00,
2013-02-16 18:51:00,25.0,15.0,-100.00,North,11,2.0,8.0,65,0.00,,,0.00,3.000000,,2013-02-17 03:51:00,
2013-02-16 19:11:00,24.0,12.0,-100.00,NNE,19,4.0,8.0,60,0.00,,,0.00,0.000000,,2013-02-17 04:11:00,
2013-02-16 19:21:00,24.0,12.0,-100.00,NNE,19,4.0,8.0,60,0.00,,,0.00,0.000000,,2013-02-17 04:21:00,
2013-02-16 19:31:00,24.0,12.0,-100.00,NNE,19,4.0,8.0,60,0.00,,,0.00,0.000000,,2013-02-17 04:31:00,
2013-02-16 19:41:00,24.0,12.0,-100.00,NNE,19,4.0,8.0,60,0.00,,,0.00,0.000000,,2013-02-17 04:41:00,
2013-02-16 19:51:00,24.0,12.0,-100.00,NNE,19,4.0,8.0,60,0.00,,,0.00,0.000000,,2013-02-17 04:51:00,
2013-02-16 19:52:00,22.0,15.0,-100.00,North,351,3.0,9.0,75,0.00,,,0.00,0.000000,,2013-02-17 04:52:00,
2013-02-16 20:22:00,22.0,15.0,-100.00,North,351,3.0,9.0,75,0.00,,,0.00,0.000000,,2013-02-17 05:22:00,
2013-02-16 20:32:00,22.0,15.0,-100.00,North,351,3.0,9.0,75,0.00,,,0.00,0.000000,,2013-02-17 05:32:00,
2013-02-16 20:42:00,22.0,15.0,-100.00,North,351,3.0,9.0,75,0.00,,,0.00,0.000000,,2013-02-17 05:42:00,
2013-02-16 21:11:00,20.0,18.0,-100.00,North,351,3.0,7.0,90,0.00,,,0.00,0.000000,,2013-02-17 06:11:00,
2013-02-16 21:21:00,20.0,18.0,-100.00,North,351,3.0,7.0,90,0.00,,,0.00,0.000000,,2013-02-17 06:21:00,
2013-02-16 21:31:00,20.0,18.0,-100.00,North,351,3.0,7.0,90,0.00,,,0.00,0.000000,,2013-02-17 06:31:00,
2013-02-16 21:41:00,20.0,18.0,-100.00,North,351,3.0,7.0,90,0.00,,,0.00,0.000000,,2013-02-17 06:41:00,
2013-02-16 21:51:00,20.0,18.0,-100.00,North,351,3.0,7.0,90,0.00,,,0.00,0.000000,,2013-02-17 06:51:00,
2013-02-16 22:11:00,19.0,17.0,-100.00,North,349,3.0,10.0,92,0.00,,,0.00,0.000000,,2013-02-17 07:11:00,
2013-02-16 22:21:00,19.0,17.0,-100.00,North,349,3.0,10.0,92,0.00,,,0.00,0.000000,,2013-02-17 07:21:00,
2013-02-16 22:31:00,19.0,17.0,-100.00,North,349,3.0,10.0,92,0.00,,,0.00,0.000000,,2013-02-17 07:31:00,
2013-02-16 22:41:00,19.0,17.0,-100.00,North,349,3.0,10.0,92,0.00,,,0.00,0.000000,,2013-02-17 07:41:00,
2013-02-16 22:51:00,19.0,17.0,-100.00,North,349,3.0,10.0,92,0.00,,,0.00,0.000000,,2013-02-17 07:51:00,
2013-02-16 22:52:00,19.0,17.0,-100.00,North,358,3.0,9.0,92,0.00,,,0.00,0.000000,,2013-02-17 07:52:00,
2013-02-16 23:21:00,19.0,17.0,-100.00,North,358,3.0,9.0,92,0.00,,,0.00,0.000000,,2013-02-17 08:21:00,
2013-02-16 23:31:00,19.0,17.0,-100.00,North,358,3.0,9.0,92,0.00,,,0.00,0.000000,,2013-02-17 08:31:00,
2013-02-16 23:42:00,19.0,17.0,-100.00,North,358,3.0,9.0,92,0.00,,,0.00,0.000000,,2013-02-17 08:42:00,